sensor_id;sensor_type;location;lat;lon;timestamp;temperature;humidity
22522;DHT22;11427;51.062;17.044;2022-12-29T00:02:49;7.50;99.90
22522;DHT22;11427;51.062;17.044;2022-12-29T00:17:51;7.50;99.90
22522;DHT22;11427;51.062;17.044;2022-12-29T00:32:53;7.50;99.90
22522;DHT22;11427;51.062;17.044;2022-12-29T00:48:13;7.40;99.90
22522;DHT22;11427;51.062;17.044;2022-12-29T01:03:15;7.30;99.90
22522;DHT22;11427;51.062;17.044;2022-12-29T01:18:19;7.30;99.90
22522;DHT22;11427;51.062;17.044;2022-12-29T01:33:21;7.30;99.90
22522;DHT22;11427;51.062;17.044;2022-12-29T01:48:23;7.50;99.90
22522;DHT22;11427;51.062;17.044;2022-12-29T02:03:27;7.50;99.90
22522;DHT22;11427;51.062;17.044;2022-12-29T03:20:19;7.20;99.90
22522;DHT22;11427;51.062;17.044;2022-12-29T03:35:25;7.00;99.90
22522;DHT22;11427;51.062;17.044;2022-12-29T03:50:29;7.40;99.90
22522;DHT22;11427;51.062;17.044;2022-12-29T04:05:31;7.40;99.90
22522;DHT22;11427;51.062;17.044;2022-12-29T04:20:33;7.40;99.90
22522;DHT22;11427;51.062;17.044;2022-12-29T04:35:54;7.30;99.90
22522;DHT22;11427;51.062;17.044;2022-12-29T04:50:56;7.50;99.90
22522;DHT22;11427;51.062;17.044;2022-12-29T05:05:58;7.60;99.90
22522;DHT22;11427;51.062;17.044;2022-12-29T05:21:00;7.60;99.90
22522;DHT22;11427;51.062;17.044;2022-12-29T05:36:06;7.70;99.90
22522;DHT22;11427;51.062;17.044;2022-12-29T05:51:08;7.70;99.90
22522;DHT22;11427;51.062;17.044;2022-12-29T06:06:10;7.50;99.90
22522;DHT22;11427;51.062;17.044;2022-12-29T06:21:12;7.50;99.90
22522;DHT22;11427;51.062;17.044;2022-12-29T06:36:14;7.60;99.90
22522;DHT22;11427;51.062;17.044;2022-12-29T06:51:18;7.80;99.90
22522;DHT22;11427;51.062;17.044;2022-12-29T07:06:20;7.90;99.90
22522;DHT22;11427;51.062;17.044;2022-12-29T07:21:22;7.80;99.90
22522;DHT22;11427;51.062;17.044;2022-12-29T07:36:24;7.80;99.90
22522;DHT22;11427;51.062;17.044;2022-12-29T07:51:34;7.80;99.90
22522;DHT22;11427;51.062;17.044;2022-12-29T08:06:36;7.80;99.90
22522;DHT22;11427;51.062;17.044;2022-12-29T08:21:39;7.90;99.90
22522;DHT22;11427;51.062;17.044;2022-12-29T08:36:42;8.20;99.90
22522;DHT22;11427;51.062;17.044;2022-12-29T08:51:44;8.70;99.90
22522;DHT22;11427;51.062;17.044;2022-12-29T09:06:46;8.80;99.90
22522;DHT22;11427;51.062;17.044;2022-12-29T09:21:48;8.90;99.90
22522;DHT22;11427;51.062;17.044;2022-12-29T09:36:50;8.90;99.90
22522;DHT22;11427;51.062;17.044;2022-12-29T09:51:55;9.10;99.90
22522;DHT22;11427;51.062;17.044;2022-12-29T10:07:05;9.40;99.90
22522;DHT22;11427;51.062;17.044;2022-12-29T10:53:21;10.90;99.90
22522;DHT22;11427;51.062;17.044;2022-12-29T11:08:26;11.20;99.90
22522;DHT22;11427;51.062;17.044;2022-12-29T11:23:35;11.10;99.90
22522;DHT22;11427;51.062;17.044;2022-12-29T11:38:51;11.40;99.90
22522;DHT22;11427;51.062;17.044;2022-12-29T11:53:57;11.40;99.90
22522;DHT22;11427;51.062;17.044;2022-12-29T12:09:10;11.30;99.90
22522;DHT22;11427;51.062;17.044;2022-12-29T13:41:11;11.70;99.90
22522;DHT22;11427;51.062;17.044;2022-12-29T13:56:20;11.90;99.90
22522;DHT22;11427;51.062;17.044;2022-12-29T14:11:35;11.70;99.90
22522;DHT22;11427;51.062;17.044;2022-12-29T14:26:37;10.30;99.90
22522;DHT22;11427;51.062;17.044;2022-12-29T14:41:39;9.80;99.90
22522;DHT22;11427;51.062;17.044;2022-12-29T14:56:42;9.50;99.90
22522;DHT22;11427;51.062;17.044;2022-12-29T15:11:50;9.10;99.90
22522;DHT22;11427;51.062;17.044;2022-12-29T15:26:53;8.70;99.90
22522;DHT22;11427;51.062;17.044;2022-12-29T15:57:23;8.20;99.90
22522;DHT22;11427;51.062;17.044;2022-12-29T16:12:35;8.00;99.90
22522;DHT22;11427;51.062;17.044;2022-12-29T16:27:40;8.00;99.90
22522;DHT22;11427;51.062;17.044;2022-12-29T16:57:52;8.10;99.90
22522;DHT22;11427;51.062;17.044;2022-12-29T17:12:55;8.10;99.90
22522;DHT22;11427;51.062;17.044;2022-12-29T17:28:09;8.20;99.90
22522;DHT22;11427;51.062;17.044;2022-12-29T17:43:14;8.30;99.90
22522;DHT22;11427;51.062;17.044;2022-12-29T17:58:21;8.30;99.90
22522;DHT22;11427;51.062;17.044;2022-12-29T18:13:27;8.20;99.90
22522;DHT22;11427;51.062;17.044;2022-12-29T18:28:46;8.20;99.90
22522;DHT22;11427;51.062;17.044;2022-12-29T18:43:50;8.00;99.90
22522;DHT22;11427;51.062;17.044;2022-12-29T18:58:52;8.10;99.90
22522;DHT22;11427;51.062;17.044;2022-12-29T19:13:54;8.00;99.90
22522;DHT22;11427;51.062;17.044;2022-12-29T19:28:57;7.80;99.90
22522;DHT22;11427;51.062;17.044;2022-12-29T19:43:59;7.60;99.90
22522;DHT22;11427;51.062;17.044;2022-12-29T19:59:01;7.80;99.90
22522;DHT22;11427;51.062;17.044;2022-12-29T20:14:03;7.70;99.90
22522;DHT22;11427;51.062;17.044;2022-12-29T20:29:05;7.80;99.90
22522;DHT22;11427;51.062;17.044;2022-12-29T20:44:07;7.70;99.90
22522;DHT22;11427;51.062;17.044;2022-12-29T20:59:09;7.60;99.90
22522;DHT22;11427;51.062;17.044;2022-12-29T21:14:28;7.40;99.90
22522;DHT22;11427;51.062;17.044;2022-12-29T21:29:30;7.50;99.90
22522;DHT22;11427;51.062;17.044;2022-12-29T21:44:32;7.40;99.90
22522;DHT22;11427;51.062;17.044;2022-12-29T21:59:53;7.40;99.90
22522;DHT22;11427;51.062;17.044;2022-12-29T22:15:13;7.40;99.90
22522;DHT22;11427;51.062;17.044;2022-12-29T22:30:16;7.40;99.90
22522;DHT22;11427;51.062;17.044;2022-12-29T22:45:18;7.50;99.90
22522;DHT22;11427;51.062;17.044;2022-12-29T23:00:20;7.50;99.90
22522;DHT22;11427;51.062;17.044;2022-12-29T23:15:22;8.00;99.90
22522;DHT22;11427;51.062;17.044;2022-12-29T23:30:24;8.10;99.90
22522;DHT22;11427;51.062;17.044;2022-12-29T23:45:26;8.20;99.90
